createdAt,value
2022-11-20T00:01:17.295Z,91160.75
2022-11-20T00:03:44.122Z,91164.09
2022-11-20T00:06:13.383Z,91174.69
2022-11-20T00:08:40.740Z,91175.88
2022-11-20T00:11:16.103Z,91186.44
2022-11-20T00:13:48.162Z,91166.03
2022-11-20T00:16:18.269Z,91161.47
2022-11-20T00:18:45.805Z,91165.44
2022-11-20T00:21:15.363Z,91151.00
2022-11-20T00:23:42.844Z,91165.00
2022-11-20T00:26:13.491Z,91154.88
2022-11-20T00:28:40.963Z,91176.03
2022-11-20T00:31:10.609Z,91157.06
2022-11-20T00:33:37.749Z,91157.78
2022-11-20T00:36:10.499Z,91166.13
2022-11-20T00:38:37.636Z,91149.94
2022-11-20T00:41:09.528Z,91168.53
2022-11-20T00:43:38.209Z,91157.06
2022-11-20T00:46:10.566Z,91155.56
2022-11-20T00:48:37.605Z,91144.94
2022-11-20T00:51:04.379Z,91172.84
2022-11-20T00:53:31.398Z,91165.25
2022-11-20T00:56:04.405Z,91142.81
2022-11-20T00:58:34.687Z,91160.16
2022-11-20T01:01:07.754Z,91161.56
2022-11-20T01:03:36.658Z,91151.00
2022-11-20T01:06:05.854Z,91161.09
2022-11-20T01:08:34.173Z,91159.97
2022-11-20T01:11:06.826Z,91146.06
2022-11-20T01:13:40.348Z,91126.91
2022-11-20T01:16:17.432Z,91140.41
2022-11-20T01:18:46.895Z,91136.75
2022-11-20T01:21:18.231Z,91134.09
2022-11-20T01:23:45.613Z,91121.13
2022-11-20T01:26:15.262Z,91146.91
2022-11-20T01:28:42.704Z,91143.94
2022-11-20T01:31:37.214Z,91145.28
2022-11-20T01:34:10.563Z,91144.97
2022-11-20T01:36:38.841Z,91142.16
2022-11-20T01:39:08.350Z,91143.25
2022-11-20T01:41:54.524Z,91136.88
2022-11-20T01:44:42.966Z,91145.78
2022-11-20T01:47:15.537Z,91142.75
2022-11-20T01:49:57.877Z,91148.94
2022-11-20T01:52:31.701Z,91133.38
2022-11-20T01:55:16.122Z,91158.06
2022-11-20T01:57:44.811Z,91161.81
2022-11-20T02:00:14.644Z,91148.97
2022-11-20T02:02:46.991Z,91151.25
2022-11-20T02:05:36.578Z,91150.50
2022-11-20T02:08:05.475Z,91151.97
2022-11-20T02:10:33.206Z,91134.97
2022-11-20T02:13:19.155Z,91122.13
2022-11-20T02:15:46.449Z,91137.78
2022-11-20T02:18:16.771Z,91138.59
2022-11-20T02:20:46.234Z,91130.25
2022-11-20T02:23:34.625Z,91129.88
2022-11-20T02:26:05.201Z,91117.81
2022-11-20T02:28:32.136Z,91114.56
2022-11-20T02:30:58.845Z,91125.88
2022-11-20T02:33:25.549Z,91120.84
2022-11-20T02:36:00.015Z,91128.75
2022-11-20T02:38:27.046Z,91128.06
2022-11-20T02:40:55.744Z,91133.72
2022-11-20T02:43:23.823Z,91118.25
2022-11-20T02:45:50.904Z,91113.03
2022-11-20T02:48:17.725Z,91113.78
2022-11-20T02:50:44.536Z,91113.03
2022-11-20T02:53:11.234Z,91100.59
2022-11-20T02:55:38.020Z,91094.09
2022-11-20T02:58:04.662Z,91119.84
2022-11-20T03:00:31.766Z,91109.69
2022-11-20T03:02:58.475Z,91120.97
2022-11-20T03:05:25.104Z,91110.44
2022-11-20T03:07:56.122Z,91102.47
2022-11-20T03:10:22.782Z,91103.22
2022-11-20T03:12:54.318Z,91091.19
2022-11-20T03:15:21.025Z,91095.69
2022-11-20T03:17:47.811Z,91094.69
2022-11-20T03:20:14.513Z,91095.88
2022-11-20T03:22:41.309Z,91101.84
2022-11-20T03:25:08.354Z,91094.38
2022-11-20T03:27:35.695Z,91094.53
2022-11-20T03:30:02.548Z,91083.56
2022-11-20T03:32:29.191Z,91084.22
2022-11-20T03:34:55.792Z,91091.41
2022-11-20T03:37:22.500Z,91092.22
2022-11-20T03:39:49.137Z,91093.13
2022-11-20T03:42:34.216Z,91092.06
2022-11-20T03:45:00.850Z,91087.22
2022-11-20T03:47:27.492Z,91086.84
2022-11-20T03:49:54.747Z,91083.50
2022-11-20T03:52:21.477Z,91076.84
2022-11-20T03:54:48.366Z,91084.50
2022-11-20T03:57:15.031Z,91065.50
2022-11-20T03:59:41.670Z,91057.97
2022-11-20T04:02:08.421Z,91061.06
2022-11-20T04:04:35.092Z,91058.91
2022-11-20T04:07:01.988Z,91079.88
2022-11-20T04:09:28.780Z,91071.59
2022-11-20T04:11:55.642Z,91077.38
2022-11-20T04:14:22.295Z,91087.47
2022-11-20T04:16:49.031Z,91072.41
2022-11-20T04:19:17.421Z,91089.56
2022-11-20T04:21:45.276Z,91101.13
2022-11-20T04:24:12.722Z,91095.50
2022-11-20T04:26:40.471Z,91084.84
2022-11-20T04:29:10.687Z,91094.13
2022-11-20T04:31:37.370Z,91093.50
2022-11-20T04:34:07.300Z,91094.63
2022-11-20T04:36:34.427Z,91085.97
2022-11-20T04:39:04.241Z,91081.34
2022-11-20T04:41:36.916Z,91089.34
2022-11-20T04:44:06.793Z,91081.75
2022-11-20T04:46:44.522Z,91072.72
2022-11-20T04:49:12.521Z,91070.44
2022-11-20T04:51:39.272Z,91056.88
2022-11-20T04:54:05.926Z,91064.78
2022-11-20T04:56:32.609Z,91066.75
2022-11-20T04:59:03.250Z,91071.94
2022-11-20T05:01:30.601Z,91074.84
2022-11-20T05:03:57.346Z,91057.50
2022-11-20T05:06:24.322Z,91066.97
2022-11-20T05:08:51.369Z,91074.09
2022-11-20T05:11:21.086Z,91070.03
2022-11-20T05:13:48.486Z,91077.19
2022-11-20T05:16:26.381Z,91067.69
2022-11-20T05:18:55.328Z,91073.78
2022-11-20T05:21:22.721Z,91067.25
2022-11-20T05:23:49.829Z,91070.25
2022-11-20T05:26:25.425Z,91065.69
2022-11-20T05:28:52.629Z,91052.84
2022-11-20T05:31:26.644Z,91061.94
2022-11-20T05:33:55.751Z,91025.25
2022-11-20T05:36:22.444Z,91051.78
2022-11-20T05:38:51.069Z,91058.94
2022-11-20T05:41:20.857Z,91046.81
2022-11-20T05:43:49.001Z,91057.00
2022-11-20T05:46:18.960Z,91058.13
2022-11-20T05:48:47.654Z,91052.84
2022-11-20T05:51:17.738Z,91066.44
2022-11-20T05:53:48.252Z,91049.13
2022-11-20T05:56:21.248Z,91046.94
2022-11-20T05:58:48.186Z,91070.13
2022-11-20T06:01:21.299Z,91071.69
2022-11-20T06:03:48.867Z,91082.56
2022-11-20T06:06:16.987Z,91088.16
2022-11-20T06:08:44.112Z,91093.78
2022-11-20T06:11:13.685Z,91092.00
2022-11-20T06:13:42.305Z,91090.13
2022-11-20T06:16:10.627Z,91092.31
2022-11-20T06:18:37.620Z,91095.69
2022-11-20T06:21:07.629Z,91092.50
2022-11-20T06:23:35.739Z,91108.88
2022-11-20T06:26:04.701Z,91103.28
2022-11-20T06:28:31.552Z,91094.19
2022-11-20T06:30:58.835Z,91103.72
2022-11-20T06:33:25.830Z,91111.13
2022-11-20T06:35:58.453Z,91092.72
2022-11-20T06:38:27.838Z,91097.94
2022-11-20T06:40:55.379Z,91099.09
2022-11-20T06:43:22.656Z,91102.41
2022-11-20T06:45:57.440Z,91100.84
2022-11-20T06:48:24.945Z,91100.91
2022-11-20T06:50:51.569Z,91102.84
2022-11-20T07:02:33.391Z,91098.53
2022-11-20T07:05:00.298Z,91107.56
2022-11-20T07:07:27.013Z,91112.69
2022-11-20T07:09:53.667Z,91103.81
2022-11-20T07:12:20.378Z,91104.53
2022-11-20T07:14:47.197Z,91103.72
2022-11-20T07:17:14.073Z,91100.41
2022-11-20T07:19:40.711Z,91094.72
2022-11-20T07:22:07.374Z,91094.75
2022-11-20T07:24:34.053Z,91090.91
2022-11-20T07:27:00.713Z,91089.28
2022-11-20T07:55:50.203Z,91074.59
2022-11-20T07:58:35.581Z,91070.81
2022-11-20T08:01:21.552Z,91085.19
2022-11-20T08:03:48.317Z,91065.34
2022-11-20T08:06:15.821Z,91068.28
2022-11-20T08:08:43.183Z,91068.88
2022-11-20T08:11:28.920Z,91062.94
2022-11-20T08:14:14.313Z,91059.50
2022-11-20T08:16:41.748Z,91051.47
2022-11-20T08:19:08.592Z,91039.34
2022-11-20T08:21:38.326Z,91039.91
2022-11-20T08:24:05.999Z,91036.03
2022-11-20T08:26:32.688Z,91043.03
2022-11-20T08:29:06.663Z,91056.00
2022-11-20T08:31:33.864Z,91067.72
2022-11-20T08:34:00.519Z,91074.78
2022-11-20T08:36:27.189Z,91093.25
2022-11-20T08:38:56.140Z,91073.94
2022-11-20T08:41:29.530Z,91058.31
2022-11-20T08:44:08.029Z,91068.75
2022-11-20T08:46:39.649Z,91047.66
2022-11-20T08:49:07.680Z,91080.16
2022-11-20T08:51:34.403Z,91074.63
2022-11-20T08:54:01.480Z,91059.66
2022-11-20T08:56:29.052Z,91042.25
2022-11-20T08:59:20.162Z,91060.00
2022-11-20T09:01:42.611Z,91051.50
2022-11-20T09:04:09.383Z,91047.06
2022-11-20T09:06:36.094Z,91049.41
2022-11-20T09:09:06.656Z,91028.38
2022-11-20T09:11:33.884Z,91025.19
2022-11-20T09:14:01.234Z,91044.72
2022-11-20T09:16:28.255Z,91030.34
2022-11-20T09:19:20.200Z,91035.84
2022-11-20T09:21:48.856Z,91030.75
2022-11-20T09:24:15.544Z,91028.06
2022-11-20T09:26:42.163Z,91033.91
2022-11-20T09:29:08.840Z,91044.69
2022-11-20T09:31:35.553Z,91053.19
2022-11-20T09:34:02.162Z,91039.44
2022-11-20T09:36:28.888Z,91049.03
2022-11-20T09:38:57.373Z,91024.69
2022-11-20T09:41:51.279Z,91029.22
2022-11-20T09:44:35.991Z,91035.09
2022-11-20T09:47:18.062Z,91021.63
2022-11-20T09:50:25.961Z,91037.25
2022-11-20T09:53:06.087Z,91033.81
2022-11-20T09:55:33.180Z,91033.31
2022-11-20T09:58:00.923Z,91032.13
2022-11-20T10:00:29.351Z,91031.22
2022-11-20T10:03:18.638Z,91007.41
2022-11-20T10:05:55.972Z,91010.00
2022-11-20T10:08:37.332Z,91015.38
2022-11-20T10:11:32.386Z,91012.47
2022-11-20T10:14:17.671Z,91020.22
2022-11-20T10:17:12.105Z,91000.59
2022-11-20T10:20:01.635Z,91000.44
2022-11-20T10:22:43.575Z,90997.16
2022-11-20T10:25:17.191Z,90992.06
2022-11-20T10:28:14.709Z,91005.91
2022-11-20T10:30:47.326Z,91008.84
2022-11-20T10:33:22.295Z,90996.25
2022-11-20T10:35:54.112Z,91011.50
2022-11-20T10:38:24.656Z,91007.88
2022-11-20T10:41:21.410Z,91004.09
2022-11-20T10:43:51.777Z,90987.38
2022-11-20T10:46:23.133Z,90981.03
2022-11-20T10:48:50.966Z,90961.38
2022-11-20T10:51:43.725Z,90970.31
2022-11-20T10:54:30.302Z,90952.78
2022-11-20T10:57:21.788Z,90942.03
2022-11-20T11:00:03.674Z,90933.63
2022-11-20T11:02:48.380Z,90907.72
2022-11-20T11:05:37.388Z,90922.47
2022-11-20T11:08:11.441Z,90926.91
2022-11-20T11:11:00.036Z,90928.25
2022-11-20T11:13:29.540Z,90937.59
2022-11-20T11:15:56.840Z,90939.28
2022-11-20T11:18:32.991Z,90943.25
2022-11-20T11:21:03.832Z,90946.91
2022-11-20T11:23:30.792Z,90944.66
2022-11-20T11:26:00.142Z,90923.81
2022-11-20T11:28:28.902Z,90933.13
2022-11-20T11:30:56.857Z,90929.66
2022-11-20T11:33:29.721Z,90913.25
2022-11-20T11:36:01.755Z,90922.53
2022-11-20T11:38:45.020Z,90931.22
2022-11-20T11:41:22.057Z,90922.88
2022-11-20T11:44:14.070Z,90930.53
2022-11-20T11:46:50.453Z,90918.88
2022-11-20T11:49:21.268Z,90929.50
2022-11-20T11:51:48.286Z,90914.97
2022-11-20T11:54:29.951Z,90917.78
2022-11-20T11:57:00.143Z,90928.97
2022-11-20T11:59:55.966Z,90861.00
2022-11-20T12:02:31.360Z,90902.19
2022-11-20T12:05:24.317Z,90911.66
2022-11-20T12:07:59.755Z,90922.44
2022-11-20T12:10:36.009Z,90907.00
2022-11-20T12:13:13.804Z,90883.00
2022-11-20T12:15:45.627Z,90902.31
2022-11-20T12:18:18.703Z,90901.13
2022-11-20T12:21:22.793Z,90911.19
2022-11-20T12:24:08.208Z,90905.22
2022-11-20T12:26:55.209Z,90927.75
2022-11-20T12:29:59.533Z,90907.78
2022-11-20T12:32:40.060Z,90899.66
2022-11-20T12:35:45.350Z,90915.81
2022-11-20T12:38:33.405Z,90920.44
2022-11-20T12:41:02.940Z,90917.66
2022-11-20T12:43:54.031Z,90914.34
2022-11-20T12:46:23.431Z,90916.66
2022-11-20T12:48:58.983Z,90919.78
2022-11-20T12:52:04.054Z,90905.41
2022-11-20T12:54:30.707Z,90928.44
2022-11-20T12:57:16.032Z,90925.31
2022-11-20T12:59:54.885Z,90927.72
2022-11-20T13:02:38.871Z,90927.94
2022-11-20T13:05:50.223Z,90905.50
2022-11-20T13:08:30.534Z,90930.97
2022-11-20T13:11:17.940Z,90917.50
2022-11-20T13:14:24.665Z,90913.44
2022-11-20T13:17:10.104Z,90913.53
2022-11-20T13:19:37.187Z,90907.41
2022-11-20T13:22:04.187Z,90909.00
2022-11-20T13:24:32.986Z,90903.78
2022-11-20T13:27:03.873Z,90909.34
2022-11-20T13:29:31.056Z,90923.28
2022-11-20T13:32:08.164Z,90908.53
2022-11-20T13:34:37.953Z,90907.75
2022-11-20T13:37:07.779Z,90888.88
2022-11-20T13:39:36.265Z,90901.00
2022-11-20T13:42:12.363Z,90909.34
2022-11-20T13:44:43.133Z,90894.44
2022-11-20T13:47:25.251Z,90887.38
2022-11-20T13:49:55.390Z,90922.44
2022-11-20T13:52:47.715Z,90913.03
2022-11-20T13:55:44.192Z,90910.16
2022-11-20T13:58:52.519Z,90903.13
2022-11-20T14:01:32.488Z,90915.91
2022-11-20T14:04:06.164Z,90911.31
2022-11-20T14:06:39.722Z,90913.75
2022-11-20T14:09:06.473Z,90924.78
2022-11-20T14:11:33.175Z,90908.94
2022-11-20T14:14:16.456Z,90915.22
2022-11-20T14:16:45.335Z,90898.31
2022-11-20T14:19:17.801Z,90910.94
2022-11-20T14:21:44.459Z,90899.06
2022-11-20T14:24:13.425Z,90926.84
2022-11-20T14:26:47.025Z,90933.88
2022-11-20T14:29:19.067Z,90937.13
2022-11-20T14:31:52.656Z,90939.28
2022-11-20T14:34:25.726Z,90941.69
2022-11-20T14:36:58.445Z,90937.94
2022-11-20T14:39:43.327Z,90946.44
2022-11-20T14:42:28.333Z,90949.19
2022-11-20T14:45:00.411Z,90962.78
2022-11-20T14:47:30.396Z,90973.97
2022-11-20T14:49:59.591Z,90976.25
2022-11-20T14:52:28.983Z,90972.22
2022-11-20T14:54:57.933Z,90963.72
2022-11-20T14:57:29.464Z,90985.06
2022-11-20T15:00:11.430Z,90973.16
2022-11-20T15:02:46.404Z,90994.13
2022-11-20T15:05:14.543Z,90998.75
2022-11-20T15:07:46.997Z,90975.63
2022-11-20T15:10:19.591Z,90998.63
2022-11-20T15:12:58.031Z,91005.34
2022-11-20T15:15:31.271Z,91009.47
2022-11-20T15:17:59.220Z,91006.00
2022-11-20T15:20:29.692Z,91020.22
2022-11-20T15:22:56.373Z,91011.56
2022-11-20T15:25:25.597Z,91013.09
2022-11-20T15:27:57.856Z,91001.16
2022-11-20T15:30:25.538Z,91019.56
2022-11-20T15:32:52.391Z,90999.28
2022-11-20T15:35:19.168Z,90998.53
2022-11-20T15:37:45.911Z,90990.25
2022-11-20T15:40:13.458Z,90984.97
2022-11-20T15:43:00.159Z,90975.22
2022-11-20T15:45:29.222Z,90974.88
2022-11-20T15:47:56.022Z,90967.41
2022-11-20T15:50:26.965Z,90958.78
2022-11-20T15:52:53.630Z,90994.09
2022-11-20T15:55:20.302Z,90976.84
2022-11-20T15:57:47.014Z,90964.47
2022-11-20T16:00:16.180Z,90968.25
2022-11-20T16:02:44.833Z,90943.09
2022-11-20T16:05:13.327Z,90974.59
2022-11-20T16:07:40.081Z,90970.84
2022-11-20T16:10:07.302Z,90978.34
2022-11-20T16:12:52.632Z,90961.06
2022-11-20T16:15:37.996Z,90965.91
2022-11-20T16:18:04.826Z,90960.72
2022-11-20T16:20:31.530Z,90953.59
2022-11-20T16:22:58.182Z,90946.47
2022-11-20T16:25:24.835Z,90951.34
2022-11-20T16:27:51.596Z,90939.72
2022-11-20T16:30:18.456Z,90964.47
2022-11-20T16:32:45.358Z,90970.09
2022-11-20T16:35:12.355Z,90988.09
2022-11-20T16:37:39.730Z,90977.97
2022-11-20T16:40:07.406Z,90972.31
2022-11-20T16:42:35.486Z,90968.59
2022-11-20T16:45:02.221Z,90952.88
2022-11-20T16:47:28.926Z,90956.59
2022-11-20T16:49:56.087Z,90962.59
2022-11-20T16:52:22.737Z,90966.72
2022-11-20T16:54:49.667Z,90951.72
2022-11-20T16:57:16.361Z,90953.59
2022-11-20T16:59:43.375Z,90945.38
2022-11-20T17:02:10.692Z,90939.75
2022-11-20T17:04:37.715Z,90946.88
2022-11-20T17:07:08.020Z,90921.75
2022-11-20T17:09:34.956Z,90943.09
2022-11-20T17:12:01.783Z,90946.88
2022-11-20T17:14:28.550Z,90927.72
2022-11-20T17:16:55.605Z,90928.88
2022-11-20T17:19:22.344Z,90924.34
2022-11-20T17:21:49.760Z,90895.88
2022-11-20T17:24:16.563Z,90920.63
2022-11-20T17:26:44.727Z,90915.38
2022-11-20T17:29:14.150Z,90907.13
2022-11-20T17:31:41.654Z,90910.47
2022-11-20T17:34:11.474Z,90914.59
2022-11-20T17:36:44.827Z,90910.88
2022-11-20T17:39:16.495Z,90911.97
2022-11-20T17:41:44.197Z,90904.88
2022-11-20T17:44:11.934Z,90916.13
2022-11-20T17:46:38.558Z,90908.25
2022-11-20T17:49:05.343Z,90903.00
2022-11-20T17:51:35.001Z,90916.88
2022-11-20T17:54:05.192Z,90928.09
2022-11-20T17:56:52.508Z,90931.47
2022-11-20T17:59:19.395Z,90923.22
2022-11-20T18:01:46.509Z,90931.88
2022-11-20T18:04:13.394Z,90915.38
2022-11-20T18:06:40.866Z,90928.06
2022-11-20T18:09:07.947Z,90930.72
2022-11-20T18:11:37.103Z,90923.59
2022-11-20T18:14:25.912Z,90918.38
2022-11-20T18:16:55.601Z,90927.34
2022-11-20T18:19:27.609Z,90938.63
2022-11-20T18:21:56.879Z,90914.63
2022-11-20T18:24:23.764Z,90892.13
2022-11-20T18:26:50.580Z,90919.47
2022-11-20T18:29:17.661Z,90915.38
2022-11-20T18:31:44.405Z,90913.88
2022-11-20T18:34:14.131Z,90901.13
2022-11-20T18:36:42.647Z,90899.63
2022-11-20T18:39:12.200Z,90894.75
2022-11-20T18:41:58.008Z,90880.13
2022-11-20T18:44:46.528Z,90868.53
2022-11-20T18:47:16.084Z,90886.91
2022-11-20T18:49:46.328Z,90892.91
2022-11-20T18:52:13.717Z,90887.28
2022-11-20T18:54:40.493Z,90880.13
2022-11-20T18:57:07.847Z,90869.28
2022-11-20T18:59:34.524Z,90870.03
2022-11-20T19:02:01.351Z,90859.53
2022-11-20T19:04:29.654Z,90863.66
2022-11-20T19:06:56.425Z,90840.78
2022-11-20T19:09:24.345Z,90832.88
2022-11-20T19:11:52.193Z,90830.66
2022-11-20T19:14:19.191Z,90843.41
2022-11-20T19:16:46.355Z,90819.47
2022-11-20T19:19:12.963Z,90839.31
2022-11-20T19:21:39.725Z,90800.00
2022-11-20T19:24:06.520Z,90847.19
2022-11-20T19:26:36.137Z,90849.81
2022-11-20T19:29:04.471Z,90838.91
2022-11-20T19:31:31.494Z,90827.69
2022-11-20T19:34:00.888Z,90834.44
2022-11-20T19:36:33.237Z,90842.69
2022-11-20T19:39:00.858Z,90843.78
2022-11-20T19:41:30.448Z,90843.38
2022-11-20T19:44:08.449Z,90848.28
2022-11-20T19:46:36.516Z,90850.91
2022-11-20T19:49:04.339Z,90833.63
2022-11-20T19:51:34.212Z,90854.66
2022-11-20T19:54:01.869Z,90836.97
2022-11-20T19:56:30.354Z,90832.84
2022-11-20T19:58:57.692Z,90824.25
2022-11-20T20:01:30.122Z,90822.75
2022-11-20T20:04:02.495Z,90822.44
2022-11-20T20:06:29.817Z,90812.63
2022-11-20T20:09:05.896Z,90805.19
2022-11-20T20:11:34.346Z,90800.72
2022-11-20T20:14:06.815Z,90809.28
2022-11-20T20:16:34.402Z,90806.31
2022-11-20T20:19:03.256Z,90773.75
2022-11-20T20:21:31.810Z,90794.31
2022-11-20T20:23:59.140Z,90788.69
2022-11-20T20:26:28.599Z,90791.69
2022-11-20T20:28:55.740Z,90781.97
2022-11-20T20:31:25.062Z,90766.16
2022-11-20T20:33:52.033Z,90768.44
2022-11-20T20:36:21.866Z,90755.00
2022-11-20T20:38:55.925Z,90777.34
2022-11-20T20:41:25.114Z,90766.16
2022-11-20T20:44:11.381Z,90780.75
2022-11-20T20:46:39.597Z,90768.31
2022-11-20T20:49:07.453Z,90760.75
2022-11-20T20:51:35.049Z,90749.88
2022-11-20T20:54:01.910Z,90749.66
2022-11-20T20:56:28.653Z,90770.63
2022-11-20T20:58:55.287Z,90753.44
2022-11-20T21:01:23.131Z,90742.50
2022-11-20T21:03:50.110Z,90745.06
2022-11-20T21:06:17.010Z,90738.25
2022-11-20T21:08:44.580Z,90734.13
2022-11-20T21:11:14.265Z,90720.19
2022-11-20T21:13:43.000Z,90726.59
2022-11-20T21:16:10.846Z,90707.38
2022-11-20T21:18:37.885Z,90682.88
2022-11-20T21:21:44.801Z,90671.16
2022-11-20T21:24:11.450Z,90662.75
2022-11-20T21:26:38.470Z,90672.44
2022-11-20T21:29:05.084Z,90666.41
2022-11-20T21:31:31.859Z,90654.25
2022-11-20T21:33:58.827Z,90641.81
2022-11-20T21:36:30.339Z,90635.31
2022-11-20T21:38:59.482Z,90634.84
2022-11-20T21:41:30.335Z,90625.53
2022-11-20T21:46:46.388Z,90586.44
2022-11-20T21:49:14.643Z,90578.91
2022-11-20T21:51:41.831Z,90592.75
2022-11-20T21:54:10.762Z,90594.59
2022-11-20T21:56:37.437Z,90595.34
2022-11-20T21:59:04.041Z,90578.63
2022-11-20T22:01:31.390Z,90593.72
2022-11-20T22:04:02.374Z,90592.19
2022-11-20T22:06:33.992Z,90576.81
2022-11-20T22:09:01.417Z,90581.19
2022-11-20T22:11:28.494Z,90598.53
2022-11-20T22:14:13.667Z,90605.56
2022-11-20T22:16:40.458Z,90611.00
2022-11-20T22:19:07.148Z,90607.34
2022-11-20T22:21:35.248Z,90617.44
2022-11-20T22:24:02.116Z,90649.91
2022-11-20T22:26:33.905Z,90630.38
2022-11-20T22:29:04.451Z,90641.94
2022-11-20T22:31:31.874Z,90634.06
2022-11-20T22:34:01.135Z,90631.88
2022-11-20T22:36:29.661Z,90626.16
2022-11-20T22:38:56.880Z,90589.50
2022-11-20T22:41:27.243Z,90606.59
2022-11-20T22:43:56.728Z,90584.69
2022-11-20T22:46:25.011Z,90586.53
2022-11-20T22:48:57.052Z,90581.66
2022-11-20T22:51:35.327Z,90584.69
2022-11-20T22:54:03.623Z,90553.13
2022-11-20T22:56:31.148Z,90555.63
2022-11-20T22:58:58.236Z,90548.56
2022-11-20T23:01:33.466Z,90530.44
2022-11-20T23:04:03.349Z,90544.06
2022-11-20T23:06:30.839Z,90536.78
2022-11-20T23:08:57.519Z,90526.66
2022-11-20T23:11:27.427Z,90527.06
2022-11-20T23:13:57.613Z,90540.06
2022-11-20T23:16:26.208Z,90508.13
2022-11-20T23:18:58.680Z,90531.00
2022-11-20T23:21:26.178Z,90520.91
2022-11-20T23:23:55.742Z,90515.00
2022-11-20T23:26:25.061Z,90523.47
2022-11-20T23:28:54.139Z,90523.72
2022-11-20T23:31:21.270Z,90500.03
2022-11-20T23:33:47.919Z,90504.25
2022-11-20T23:36:15.197Z,90509.63
2022-11-20T23:38:42.433Z,90503.59
2022-11-20T23:41:09.247Z,90488.41
2022-11-20T23:43:36.019Z,90462.91
2022-11-20T23:46:03.984Z,90459.47
2022-11-20T23:48:33.819Z,90450.75
2022-11-20T23:51:00.933Z,90449.25
2022-11-20T23:53:30.154Z,90450.53
2022-11-20T23:55:59.497Z,90436.97
2022-11-20T23:58:33.991Z,90436.44
